sensor_id;sensor_type;location;lat;lon;timestamp;P1;durP1;ratioP1;P2;durP2;ratioP2
58372;SDS011;44177;43.356;27.672;2022-12-07T00:01:44;1.10;;;1.00;;
58372;SDS011;44177;43.356;27.672;2022-12-07T00:04:11;1.77;;;0.95;;
58372;SDS011;44177;43.356;27.672;2022-12-07T00:06:39;1.83;;;1.10;;
58372;SDS011;44177;43.356;27.672;2022-12-07T00:09:10;2.55;;;1.15;;
58372;SDS011;44177;43.356;27.672;2022-12-07T00:11:40;1.70;;;1.08;;
58372;SDS011;44177;43.356;27.672;2022-12-07T00:14:06;1.15;;;1.05;;
58372;SDS011;44177;43.356;27.672;2022-12-07T00:16:35;1.42;;;1.02;;
58372;SDS011;44177;43.356;27.672;2022-12-07T00:19:01;1.45;;;1.00;;
58372;SDS011;44177;43.356;27.672;2022-12-07T00:21:28;1.10;;;0.85;;
58372;SDS011;44177;43.356;27.672;2022-12-07T00:23:56;1.40;;;0.98;;
58372;SDS011;44177;43.356;27.672;2022-12-07T00:26:23;1.15;;;1.05;;
58372;SDS011;44177;43.356;27.672;2022-12-07T00:28:57;1.33;;;0.90;;
58372;SDS011;44177;43.356;27.672;2022-12-07T00:31:27;1.92;;;1.00;;
58372;SDS011;44177;43.356;27.672;2022-12-07T00:33:54;1.45;;;1.00;;
58372;SDS011;44177;43.356;27.672;2022-12-07T00:36:20;1.65;;;1.00;;
58372;SDS011;44177;43.356;27.672;2022-12-07T00:38:47;1.13;;;1.00;;
58372;SDS011;44177;43.356;27.672;2022-12-07T00:41:14;1.58;;;1.15;;
58372;SDS011;44177;43.356;27.672;2022-12-07T00:43:42;1.55;;;1.13;;
58372;SDS011;44177;43.356;27.672;2022-12-07T00:46:09;2.75;;;1.10;;
58372;SDS011;44177;43.356;27.672;2022-12-07T00:48:35;2.15;;;1.25;;
58372;SDS011;44177;43.356;27.672;2022-12-07T00:51:01;3.00;;;1.02;;
58372;SDS011;44177;43.356;27.672;2022-12-07T00:53:27;1.60;;;1.08;;
58372;SDS011;44177;43.356;27.672;2022-12-07T00:55:53;1.40;;;1.10;;
58372;SDS011;44177;43.356;27.672;2022-12-07T00:58:21;1.63;;;1.17;;
58372;SDS011;44177;43.356;27.672;2022-12-07T01:00:47;1.52;;;1.13;;
58372;SDS011;44177;43.356;27.672;2022-12-07T01:03:13;2.10;;;1.05;;
58372;SDS011;44177;43.356;27.672;2022-12-07T01:05:40;2.00;;;1.10;;
58372;SDS011;44177;43.356;27.672;2022-12-07T01:08:05;2.63;;;1.30;;
58372;SDS011;44177;43.356;27.672;2022-12-07T01:10:32;1.08;;;0.98;;
58372;SDS011;44177;43.356;27.672;2022-12-07T01:12:57;1.40;;;1.15;;
58372;SDS011;44177;43.356;27.672;2022-12-07T01:15:24;1.80;;;1.05;;
58372;SDS011;44177;43.356;27.672;2022-12-07T01:17:51;1.63;;;1.23;;
58372;SDS011;44177;43.356;27.672;2022-12-07T01:20:16;1.10;;;1.00;;
58372;SDS011;44177;43.356;27.672;2022-12-07T01:22:42;1.50;;;1.30;;
58372;SDS011;44177;43.356;27.672;2022-12-07T01:25:08;1.02;;;1.00;;
58372;SDS011;44177;43.356;27.672;2022-12-07T01:27:35;3.47;;;1.55;;
58372;SDS011;44177;43.356;27.672;2022-12-07T01:30:02;1.48;;;1.10;;
58372;SDS011;44177;43.356;27.672;2022-12-07T01:32:29;1.63;;;1.10;;
58372;SDS011;44177;43.356;27.672;2022-12-07T01:34:55;1.15;;;1.05;;
58372;SDS011;44177;43.356;27.672;2022-12-07T01:37:20;1.52;;;1.30;;
58372;SDS011;44177;43.356;27.672;2022-12-07T01:39:49;1.92;;;1.58;;
58372;SDS011;44177;43.356;27.672;2022-12-07T01:42:16;1.48;;;1.35;;
58372;SDS011;44177;43.356;27.672;2022-12-07T01:47:46;1.55;;;1.45;;
58372;SDS011;44177;43.356;27.672;2022-12-07T01:50:15;1.65;;;1.42;;
58372;SDS011;44177;43.356;27.672;2022-12-07T01:52:41;1.20;;;1.10;;
58372;SDS011;44177;43.356;27.672;2022-12-07T01:55:10;2.13;;;1.30;;
58372;SDS011;44177;43.356;27.672;2022-12-07T01:57:39;2.03;;;1.50;;
58372;SDS011;44177;43.356;27.672;2022-12-07T02:00:08;2.08;;;1.52;;
58372;SDS011;44177;43.356;27.672;2022-12-07T02:02:41;2.42;;;1.38;;
58372;SDS011;44177;43.356;27.672;2022-12-07T02:05:11;1.63;;;1.50;;
58372;SDS011;44177;43.356;27.672;2022-12-07T02:07:36;2.25;;;1.48;;
58372;SDS011;44177;43.356;27.672;2022-12-07T02:12:38;1.67;;;1.57;;
58372;SDS011;44177;43.356;27.672;2022-12-07T02:15:03;1.70;;;1.60;;
58372;SDS011;44177;43.356;27.672;2022-12-07T02:17:36;2.47;;;1.90;;
58372;SDS011;44177;43.356;27.672;2022-12-07T02:28:12;3.17;;;1.67;;
58372;SDS011;44177;43.356;27.672;2022-12-07T02:30:42;3.22;;;2.22;;
58372;SDS011;44177;43.356;27.672;2022-12-07T02:33:25;3.45;;;1.75;;
58372;SDS011;44177;43.356;27.672;2022-12-07T02:36:39;2.60;;;1.90;;
58372;SDS011;44177;43.356;27.672;2022-12-07T02:41:28;2.47;;;1.88;;
58372;SDS011;44177;43.356;27.672;2022-12-07T02:43:59;3.00;;;1.90;;
58372;SDS011;44177;43.356;27.672;2022-12-07T02:46:30;1.73;;;1.63;;
58372;SDS011;44177;43.356;27.672;2022-12-07T02:48:59;3.97;;;2.10;;
58372;SDS011;44177;43.356;27.672;2022-12-07T02:51:29;2.38;;;2.10;;
58372;SDS011;44177;43.356;27.672;2022-12-07T02:53:55;2.63;;;2.00;;
58372;SDS011;44177;43.356;27.672;2022-12-07T02:56:23;3.33;;;2.22;;
58372;SDS011;44177;43.356;27.672;2022-12-07T03:18:28;3.42;;;2.22;;
58372;SDS011;44177;43.356;27.672;2022-12-07T03:20:57;2.50;;;1.92;;
58372;SDS011;44177;43.356;27.672;2022-12-07T03:23:26;3.10;;;2.10;;
58372;SDS011;44177;43.356;27.672;2022-12-07T03:25:58;2.45;;;1.90;;
58372;SDS011;44177;43.356;27.672;2022-12-07T03:28:28;2.88;;;2.15;;
58372;SDS011;44177;43.356;27.672;2022-12-07T03:31:03;3.50;;;2.10;;
58372;SDS011;44177;43.356;27.672;2022-12-07T03:33:54;3.17;;;2.00;;
58372;SDS011;44177;43.356;27.672;2022-12-07T03:41:56;2.85;;;2.17;;
58372;SDS011;44177;43.356;27.672;2022-12-07T03:44:23;3.45;;;2.30;;
58372;SDS011;44177;43.356;27.672;2022-12-07T03:50:02;2.80;;;2.20;;
58372;SDS011;44177;43.356;27.672;2022-12-07T03:52:55;2.78;;;2.40;;
58372;SDS011;44177;43.356;27.672;2022-12-07T03:55:29;3.55;;;2.00;;
58372;SDS011;44177;43.356;27.672;2022-12-07T03:58:05;3.13;;;2.30;;
58372;SDS011;44177;43.356;27.672;2022-12-07T04:00:34;3.55;;;2.00;;
58372;SDS011;44177;43.356;27.672;2022-12-07T04:02:59;3.10;;;2.35;;
58372;SDS011;44177;43.356;27.672;2022-12-07T04:05:25;3.03;;;2.15;;
58372;SDS011;44177;43.356;27.672;2022-12-07T04:07:51;2.55;;;2.00;;
58372;SDS011;44177;43.356;27.672;2022-12-07T04:10:17;3.38;;;2.05;;
58372;SDS011;44177;43.356;27.672;2022-12-07T04:12:43;2.83;;;2.38;;
58372;SDS011;44177;43.356;27.672;2022-12-07T04:15:08;2.58;;;2.10;;
58372;SDS011;44177;43.356;27.672;2022-12-07T04:17:34;3.33;;;2.25;;
58372;SDS011;44177;43.356;27.672;2022-12-07T04:20:00;3.42;;;2.30;;
58372;SDS011;44177;43.356;27.672;2022-12-07T04:22:26;2.58;;;1.88;;
58372;SDS011;44177;43.356;27.672;2022-12-07T04:24:51;3.00;;;2.13;;
58372;SDS011;44177;43.356;27.672;2022-12-07T04:27:17;2.78;;;2.00;;
58372;SDS011;44177;43.356;27.672;2022-12-07T04:29:42;2.85;;;2.10;;
58372;SDS011;44177;43.356;27.672;2022-12-07T04:32:08;2.85;;;2.33;;
58372;SDS011;44177;43.356;27.672;2022-12-07T04:34:33;2.03;;;1.80;;
58372;SDS011;44177;43.356;27.672;2022-12-07T04:36:58;3.08;;;2.15;;
58372;SDS011;44177;43.356;27.672;2022-12-07T04:39:28;4.13;;;2.33;;
58372;SDS011;44177;43.356;27.672;2022-12-07T04:41:54;3.40;;;2.22;;
58372;SDS011;44177;43.356;27.672;2022-12-07T04:44:20;2.40;;;2.05;;
58372;SDS011;44177;43.356;27.672;2022-12-07T04:46:46;3.10;;;2.33;;
58372;SDS011;44177;43.356;27.672;2022-12-07T04:49:12;2.90;;;2.17;;
58372;SDS011;44177;43.356;27.672;2022-12-07T04:51:39;2.97;;;2.08;;
58372;SDS011;44177;43.356;27.672;2022-12-07T04:54:05;2.58;;;1.88;;
58372;SDS011;44177;43.356;27.672;2022-12-07T04:56:30;3.15;;;2.30;;
58372;SDS011;44177;43.356;27.672;2022-12-07T04:58:56;2.88;;;2.00;;
58372;SDS011;44177;43.356;27.672;2022-12-07T05:01:22;2.45;;;2.05;;
58372;SDS011;44177;43.356;27.672;2022-12-07T05:03:49;2.70;;;2.00;;
58372;SDS011;44177;43.356;27.672;2022-12-07T05:06:15;2.53;;;2.05;;
58372;SDS011;44177;43.356;27.672;2022-12-07T05:08:41;3.55;;;2.13;;
58372;SDS011;44177;43.356;27.672;2022-12-07T05:11:08;3.65;;;2.30;;
58372;SDS011;44177;43.356;27.672;2022-12-07T05:13:34;3.60;;;2.17;;
58372;SDS011;44177;43.356;27.672;2022-12-07T05:16:00;3.03;;;1.92;;
58372;SDS011;44177;43.356;27.672;2022-12-07T05:18:25;3.33;;;2.30;;
58372;SDS011;44177;43.356;27.672;2022-12-07T05:20:51;3.33;;;2.55;;
58372;SDS011;44177;43.356;27.672;2022-12-07T05:23:17;2.53;;;2.00;;
58372;SDS011;44177;43.356;27.672;2022-12-07T05:25:43;3.20;;;2.35;;
58372;SDS011;44177;43.356;27.672;2022-12-07T05:28:09;3.63;;;2.30;;
58372;SDS011;44177;43.356;27.672;2022-12-07T05:30:35;3.63;;;2.28;;
58372;SDS011;44177;43.356;27.672;2022-12-07T05:33:00;3.35;;;2.53;;
58372;SDS011;44177;43.356;27.672;2022-12-07T05:35:26;3.03;;;2.20;;
58372;SDS011;44177;43.356;27.672;2022-12-07T05:37:51;2.78;;;2.20;;
58372;SDS011;44177;43.356;27.672;2022-12-07T05:40:17;3.05;;;2.17;;
58372;SDS011;44177;43.356;27.672;2022-12-07T05:42:43;2.50;;;2.28;;
58372;SDS011;44177;43.356;27.672;2022-12-07T05:45:10;6.50;;;2.60;;
58372;SDS011;44177;43.356;27.672;2022-12-07T05:47:35;9.00;;;3.95;;
58372;SDS011;44177;43.356;27.672;2022-12-07T05:50:03;15.20;;;8.30;;
58372;SDS011;44177;43.356;27.672;2022-12-07T05:52:30;39.50;;;13.57;;
58372;SDS011;44177;43.356;27.672;2022-12-07T05:54:55;24.38;;;12.25;;
58372;SDS011;44177;43.356;27.672;2022-12-07T05:57:21;23.05;;;10.40;;
58372;SDS011;44177;43.356;27.672;2022-12-07T05:59:46;15.90;;;7.20;;
58372;SDS011;44177;43.356;27.672;2022-12-07T06:02:12;15.25;;;7.07;;
58372;SDS011;44177;43.356;27.672;2022-12-07T06:04:41;11.75;;;7.20;;
58372;SDS011;44177;43.356;27.672;2022-12-07T06:07:09;15.02;;;7.75;;
58372;SDS011;44177;43.356;27.672;2022-12-07T06:09:35;13.88;;;8.57;;
58372;SDS011;44177;43.356;27.672;2022-12-07T06:12:01;21.38;;;9.80;;
58372;SDS011;44177;43.356;27.672;2022-12-07T06:14:45;21.60;;;9.05;;
58372;SDS011;44177;43.356;27.672;2022-12-07T06:17:11;20.17;;;9.27;;
58372;SDS011;44177;43.356;27.672;2022-12-07T06:19:37;16.13;;;7.88;;
58372;SDS011;44177;43.356;27.672;2022-12-07T06:22:03;16.67;;;8.48;;
58372;SDS011;44177;43.356;27.672;2022-12-07T06:24:29;16.88;;;8.18;;
58372;SDS011;44177;43.356;27.672;2022-12-07T06:26:56;19.50;;;9.25;;
58372;SDS011;44177;43.356;27.672;2022-12-07T06:29:21;14.45;;;8.00;;
58372;SDS011;44177;43.356;27.672;2022-12-07T06:31:47;14.43;;;9.02;;
58372;SDS011;44177;43.356;27.672;2022-12-07T06:34:14;16.67;;;8.68;;
58372;SDS011;44177;43.356;27.672;2022-12-07T06:36:41;16.45;;;9.23;;
58372;SDS011;44177;43.356;27.672;2022-12-07T06:39:07;20.10;;;10.90;;
58372;SDS011;44177;43.356;27.672;2022-12-07T06:41:34;127.72;;;64.47;;
58372;SDS011;44177;43.356;27.672;2022-12-07T06:44:03;96.32;;;49.28;;
58372;SDS011;44177;43.356;27.672;2022-12-07T06:46:30;106.57;;;49.25;;
58372;SDS011;44177;43.356;27.672;2022-12-07T06:48:56;95.00;;;45.83;;
58372;SDS011;44177;43.356;27.672;2022-12-07T06:51:21;91.53;;;39.92;;
58372;SDS011;44177;43.356;27.672;2022-12-07T06:53:47;71.35;;;35.72;;
58372;SDS011;44177;43.356;27.672;2022-12-07T06:56:13;63.40;;;28.60;;
58372;SDS011;44177;43.356;27.672;2022-12-07T06:58:38;62.13;;;27.23;;
58372;SDS011;44177;43.356;27.672;2022-12-07T07:01:12;53.80;;;25.67;;
58372;SDS011;44177;43.356;27.672;2022-12-07T07:03:38;55.80;;;29.08;;
58372;SDS011;44177;43.356;27.672;2022-12-07T07:06:05;54.15;;;27.27;;
58372;SDS011;44177;43.356;27.672;2022-12-07T07:08:32;55.47;;;25.67;;
58372;SDS011;44177;43.356;27.672;2022-12-07T07:10:58;51.70;;;26.42;;
58372;SDS011;44177;43.356;27.672;2022-12-07T07:13:24;49.63;;;26.10;;
58372;SDS011;44177;43.356;27.672;2022-12-07T07:15:49;48.85;;;26.17;;
58372;SDS011;44177;43.356;27.672;2022-12-07T07:18:15;47.92;;;25.45;;
58372;SDS011;44177;43.356;27.672;2022-12-07T07:20:40;51.42;;;26.58;;
58372;SDS011;44177;43.356;27.672;2022-12-07T07:23:06;45.97;;;25.88;;
58372;SDS011;44177;43.356;27.672;2022-12-07T07:25:32;52.25;;;25.35;;
58372;SDS011;44177;43.356;27.672;2022-12-07T07:27:58;45.17;;;23.70;;
58372;SDS011;44177;43.356;27.672;2022-12-07T07:30:24;53.83;;;25.27;;
58372;SDS011;44177;43.356;27.672;2022-12-07T07:32:50;62.75;;;25.77;;
58372;SDS011;44177;43.356;27.672;2022-12-07T07:35:15;51.40;;;24.27;;
58372;SDS011;44177;43.356;27.672;2022-12-07T07:37:41;51.58;;;24.63;;
58372;SDS011;44177;43.356;27.672;2022-12-07T07:40:07;52.08;;;23.48;;
58372;SDS011;44177;43.356;27.672;2022-12-07T07:42:34;54.45;;;23.00;;
58372;SDS011;44177;43.356;27.672;2022-12-07T07:44:59;53.17;;;23.05;;
58372;SDS011;44177;43.356;27.672;2022-12-07T07:47:25;55.28;;;23.23;;
58372;SDS011;44177;43.356;27.672;2022-12-07T07:49:50;46.45;;;21.75;;
58372;SDS011;44177;43.356;27.672;2022-12-07T07:52:16;53.40;;;20.20;;
58372;SDS011;44177;43.356;27.672;2022-12-07T07:54:41;52.58;;;20.80;;
58372;SDS011;44177;43.356;27.672;2022-12-07T07:57:06;59.03;;;20.42;;
58372;SDS011;44177;43.356;27.672;2022-12-07T07:59:32;47.65;;;19.42;;
58372;SDS011;44177;43.356;27.672;2022-12-07T08:01:57;46.47;;;19.02;;
58372;SDS011;44177;43.356;27.672;2022-12-07T08:04:23;50.00;;;19.23;;
58372;SDS011;44177;43.356;27.672;2022-12-07T08:06:48;50.63;;;20.75;;
58372;SDS011;44177;43.356;27.672;2022-12-07T08:09:14;40.58;;;17.60;;
58372;SDS011;44177;43.356;27.672;2022-12-07T08:11:39;55.28;;;19.58;;
58372;SDS011;44177;43.356;27.672;2022-12-07T08:14:05;45.50;;;17.95;;
58372;SDS011;44177;43.356;27.672;2022-12-07T08:16:30;50.13;;;17.52;;
58372;SDS011;44177;43.356;27.672;2022-12-07T08:18:56;53.95;;;17.13;;
58372;SDS011;44177;43.356;27.672;2022-12-07T08:21:21;47.65;;;16.85;;
58372;SDS011;44177;43.356;27.672;2022-12-07T08:23:47;47.15;;;18.45;;
58372;SDS011;44177;43.356;27.672;2022-12-07T08:26:13;49.65;;;19.30;;
58372;SDS011;44177;43.356;27.672;2022-12-07T08:28:41;53.63;;;20.20;;
58372;SDS011;44177;43.356;27.672;2022-12-07T08:31:08;46.50;;;19.70;;
58372;SDS011;44177;43.356;27.672;2022-12-07T08:33:36;51.75;;;22.17;;
58372;SDS011;44177;43.356;27.672;2022-12-07T08:36:06;59.20;;;22.25;;
58372;SDS011;44177;43.356;27.672;2022-12-07T08:38:34;59.00;;;24.55;;
58372;SDS011;44177;43.356;27.672;2022-12-07T08:41:01;64.32;;;24.95;;
58372;SDS011;44177;43.356;27.672;2022-12-07T08:43:27;72.00;;;26.13;;
58372;SDS011;44177;43.356;27.672;2022-12-07T08:45:59;66.60;;;26.95;;
58372;SDS011;44177;43.356;27.672;2022-12-07T08:48:32;79.28;;;29.20;;
58372;SDS011;44177;43.356;27.672;2022-12-07T08:51:00;85.50;;;28.38;;
58372;SDS011;44177;43.356;27.672;2022-12-07T08:53:27;98.78;;;30.55;;
58372;SDS011;44177;43.356;27.672;2022-12-07T08:55:53;98.65;;;30.13;;
58372;SDS011;44177;43.356;27.672;2022-12-07T08:58:19;109.55;;;29.65;;
58372;SDS011;44177;43.356;27.672;2022-12-07T09:00:44;105.45;;;32.35;;
58372;SDS011;44177;43.356;27.672;2022-12-07T09:03:09;108.13;;;33.08;;
58372;SDS011;44177;43.356;27.672;2022-12-07T09:05:35;116.43;;;33.72;;
58372;SDS011;44177;43.356;27.672;2022-12-07T09:08:01;116.97;;;35.92;;
58372;SDS011;44177;43.356;27.672;2022-12-07T09:10:27;131.35;;;38.30;;
58372;SDS011;44177;43.356;27.672;2022-12-07T09:12:54;122.68;;;38.92;;
58372;SDS011;44177;43.356;27.672;2022-12-07T09:15:20;121.28;;;42.95;;
58372;SDS011;44177;43.356;27.672;2022-12-07T09:17:45;141.18;;;45.70;;
58372;SDS011;44177;43.356;27.672;2022-12-07T09:20:11;127.85;;;43.13;;
58372;SDS011;44177;43.356;27.672;2022-12-07T09:22:36;142.25;;;42.80;;
58372;SDS011;44177;43.356;27.672;2022-12-07T09:25:03;132.85;;;43.80;;
58372;SDS011;44177;43.356;27.672;2022-12-07T09:27:29;127.90;;;43.03;;
58372;SDS011;44177;43.356;27.672;2022-12-07T09:29:55;125.25;;;40.47;;
58372;SDS011;44177;43.356;27.672;2022-12-07T09:32:21;129.27;;;41.92;;
58372;SDS011;44177;43.356;27.672;2022-12-07T09:34:46;115.90;;;40.55;;
58372;SDS011;44177;43.356;27.672;2022-12-07T09:37:12;131.05;;;41.00;;
58372;SDS011;44177;43.356;27.672;2022-12-07T09:39:38;122.82;;;40.50;;
58372;SDS011;44177;43.356;27.672;2022-12-07T09:42:04;108.70;;;40.35;;
58372;SDS011;44177;43.356;27.672;2022-12-07T09:44:32;118.13;;;38.38;;
58372;SDS011;44177;43.356;27.672;2022-12-07T09:46:59;102.68;;;38.55;;
58372;SDS011;44177;43.356;27.672;2022-12-07T09:49:25;114.65;;;39.30;;
58372;SDS011;44177;43.356;27.672;2022-12-07T09:54:34;88.35;;;35.80;;
58372;SDS011;44177;43.356;27.672;2022-12-07T09:57:03;104.78;;;36.00;;
58372;SDS011;44177;43.356;27.672;2022-12-07T09:59:28;95.15;;;34.55;;
58372;SDS011;44177;43.356;27.672;2022-12-07T10:01:54;89.07;;;34.50;;
58372;SDS011;44177;43.356;27.672;2022-12-07T10:04:26;103.25;;;35.03;;
58372;SDS011;44177;43.356;27.672;2022-12-07T10:06:52;102.45;;;33.47;;
58372;SDS011;44177;43.356;27.672;2022-12-07T10:09:18;87.55;;;31.95;;
58372;SDS011;44177;43.356;27.672;2022-12-07T10:17:35;67.53;;;29.50;;
58372;SDS011;44177;43.356;27.672;2022-12-07T10:20:15;72.95;;;30.30;;
58372;SDS011;44177;43.356;27.672;2022-12-07T10:25:25;76.15;;;30.48;;
58372;SDS011;44177;43.356;27.672;2022-12-07T10:28:00;71.60;;;27.95;;
58372;SDS011;44177;43.356;27.672;2022-12-07T10:33:38;73.75;;;29.00;;
58372;SDS011;44177;43.356;27.672;2022-12-07T10:36:27;64.32;;;27.92;;
58372;SDS011;44177;43.356;27.672;2022-12-07T10:39:03;58.20;;;25.65;;
58372;SDS011;44177;43.356;27.672;2022-12-07T10:41:29;70.72;;;26.55;;
58372;SDS011;44177;43.356;27.672;2022-12-07T10:43:55;61.00;;;25.20;;
58372;SDS011;44177;43.356;27.672;2022-12-07T10:54:36;54.08;;;24.23;;
58372;SDS011;44177;43.356;27.672;2022-12-07T11:01:06;57.22;;;23.27;;
58372;SDS011;44177;43.356;27.672;2022-12-07T11:03:25;61.42;;;24.15;;
58372;SDS011;44177;43.356;27.672;2022-12-07T11:21:43;73.07;;;22.80;;
58372;SDS011;44177;43.356;27.672;2022-12-07T11:24:31;64.90;;;20.63;;
58372;SDS011;44177;43.356;27.672;2022-12-07T11:27:13;75.85;;;23.70;;
58372;SDS011;44177;43.356;27.672;2022-12-07T11:35:09;88.47;;;21.77;;
58372;SDS011;44177;43.356;27.672;2022-12-07T11:37:45;80.13;;;21.48;;
58372;SDS011;44177;43.356;27.672;2022-12-07T11:40:30;83.03;;;21.88;;
58372;SDS011;44177;43.356;27.672;2022-12-07T11:43:13;98.95;;;26.20;;
58372;SDS011;44177;43.356;27.672;2022-12-07T11:45:46;92.47;;;29.08;;
58372;SDS011;44177;43.356;27.672;2022-12-07T11:48:20;115.03;;;35.20;;
58372;SDS011;44177;43.356;27.672;2022-12-07T11:50:54;98.45;;;37.03;;
58372;SDS011;44177;43.356;27.672;2022-12-07T12:01:25;92.15;;;33.22;;
58372;SDS011;44177;43.356;27.672;2022-12-07T12:04:16;114.70;;;34.92;;
58372;SDS011;44177;43.356;27.672;2022-12-07T12:06:52;117.15;;;33.40;;
58372;SDS011;44177;43.356;27.672;2022-12-07T12:09:23;110.88;;;34.22;;
58372;SDS011;44177;43.356;27.672;2022-12-07T12:17:39;107.88;;;31.40;;
58372;SDS011;44177;43.356;27.672;2022-12-07T12:26:22;92.32;;;29.42;;
58372;SDS011;44177;43.356;27.672;2022-12-07T12:28:57;101.45;;;29.52;;
58372;SDS011;44177;43.356;27.672;2022-12-07T12:31:34;82.85;;;27.27;;
58372;SDS011;44177;43.356;27.672;2022-12-07T12:37:02;101.18;;;29.73;;
58372;SDS011;44177;43.356;27.672;2022-12-07T12:42:49;89.05;;;26.92;;
58372;SDS011;44177;43.356;27.672;2022-12-07T12:45:25;88.03;;;27.02;;
58372;SDS011;44177;43.356;27.672;2022-12-07T12:50:49;80.32;;;24.50;;
58372;SDS011;44177;43.356;27.672;2022-12-07T12:54:03;91.60;;;27.67;;
58372;SDS011;44177;43.356;27.672;2022-12-07T12:56:51;82.85;;;29.90;;
58372;SDS011;44177;43.356;27.672;2022-12-07T13:15:36;108.75;;;37.00;;
58372;SDS011;44177;43.356;27.672;2022-12-07T13:18:14;114.10;;;40.15;;
58372;SDS011;44177;43.356;27.672;2022-12-07T13:21:00;96.45;;;38.47;;
58372;SDS011;44177;43.356;27.672;2022-12-07T13:28:39;104.90;;;40.25;;
58372;SDS011;44177;43.356;27.672;2022-12-07T13:31:23;104.55;;;39.67;;
58372;SDS011;44177;43.356;27.672;2022-12-07T13:33:50;94.95;;;37.35;;
58372;SDS011;44177;43.356;27.672;2022-12-07T13:36:19;98.18;;;37.95;;
58372;SDS011;44177;43.356;27.672;2022-12-07T13:38:51;94.28;;;37.80;;
58372;SDS011;44177;43.356;27.672;2022-12-07T13:41:22;97.82;;;38.28;;
58372;SDS011;44177;43.356;27.672;2022-12-07T13:43:54;94.72;;;37.15;;
58372;SDS011;44177;43.356;27.672;2022-12-07T13:49:15;99.25;;;40.53;;
58372;SDS011;44177;43.356;27.672;2022-12-07T13:51:46;105.10;;;42.95;;
58372;SDS011;44177;43.356;27.672;2022-12-07T13:54:12;112.65;;;43.60;;
58372;SDS011;44177;43.356;27.672;2022-12-07T13:56:39;103.88;;;43.33;;
58372;SDS011;44177;43.356;27.672;2022-12-07T13:59:16;107.43;;;43.45;;
58372;SDS011;44177;43.356;27.672;2022-12-07T14:01:45;110.43;;;42.72;;
58372;SDS011;44177;43.356;27.672;2022-12-07T14:04:19;110.75;;;43.08;;
58372;SDS011;44177;43.356;27.672;2022-12-07T14:06:51;98.70;;;42.30;;
58372;SDS011;44177;43.356;27.672;2022-12-07T14:09:18;100.68;;;44.83;;
58372;SDS011;44177;43.356;27.672;2022-12-07T14:11:48;101.22;;;42.22;;
58372;SDS011;44177;43.356;27.672;2022-12-07T14:14:18;99.85;;;41.40;;
58372;SDS011;44177;43.356;27.672;2022-12-07T14:19:43;104.18;;;42.72;;
58372;SDS011;44177;43.356;27.672;2022-12-07T14:25:16;100.25;;;40.70;;
58372;SDS011;44177;43.356;27.672;2022-12-07T14:27:51;110.32;;;41.42;;
58372;SDS011;44177;43.356;27.672;2022-12-07T14:30:20;100.55;;;41.90;;
58372;SDS011;44177;43.356;27.672;2022-12-07T14:32:46;109.40;;;41.15;;
58372;SDS011;44177;43.356;27.672;2022-12-07T14:35:16;95.00;;;41.17;;
58372;SDS011;44177;43.356;27.672;2022-12-07T14:37:44;102.50;;;41.28;;
58372;SDS011;44177;43.356;27.672;2022-12-07T14:40:13;122.18;;;42.03;;
58372;SDS011;44177;43.356;27.672;2022-12-07T14:42:46;113.00;;;40.35;;
58372;SDS011;44177;43.356;27.672;2022-12-07T14:45:16;106.05;;;41.13;;
58372;SDS011;44177;43.356;27.672;2022-12-07T14:47:43;102.40;;;40.00;;
58372;SDS011;44177;43.356;27.672;2022-12-07T14:50:13;108.50;;;41.25;;
58372;SDS011;44177;43.356;27.672;2022-12-07T14:52:42;94.47;;;39.03;;
58372;SDS011;44177;43.356;27.672;2022-12-07T14:55:22;106.22;;;39.80;;
58372;SDS011;44177;43.356;27.672;2022-12-07T14:57:50;108.35;;;40.35;;
58372;SDS011;44177;43.356;27.672;2022-12-07T15:00:16;109.88;;;40.83;;
58372;SDS011;44177;43.356;27.672;2022-12-07T15:02:44;110.05;;;40.50;;
58372;SDS011;44177;43.356;27.672;2022-12-07T15:05:10;116.05;;;40.17;;
58372;SDS011;44177;43.356;27.672;2022-12-07T15:07:36;108.38;;;40.10;;
58372;SDS011;44177;43.356;27.672;2022-12-07T15:10:02;109.07;;;41.13;;
58372;SDS011;44177;43.356;27.672;2022-12-07T15:12:28;115.57;;;38.05;;
58372;SDS011;44177;43.356;27.672;2022-12-07T15:14:53;110.13;;;39.90;;
58372;SDS011;44177;43.356;27.672;2022-12-07T15:17:19;120.25;;;41.42;;
58372;SDS011;44177;43.356;27.672;2022-12-07T15:19:44;113.18;;;40.25;;
58372;SDS011;44177;43.356;27.672;2022-12-07T15:22:09;122.82;;;40.95;;
58372;SDS011;44177;43.356;27.672;2022-12-07T15:24:36;112.18;;;38.08;;
58372;SDS011;44177;43.356;27.672;2022-12-07T15:27:02;114.63;;;39.08;;
58372;SDS011;44177;43.356;27.672;2022-12-07T15:29:27;122.13;;;38.67;;
58372;SDS011;44177;43.356;27.672;2022-12-07T15:31:53;100.03;;;36.65;;
58372;SDS011;44177;43.356;27.672;2022-12-07T15:34:18;127.43;;;38.63;;
58372;SDS011;44177;43.356;27.672;2022-12-07T15:36:44;115.63;;;39.50;;
58372;SDS011;44177;43.356;27.672;2022-12-07T15:39:09;119.00;;;36.65;;
58372;SDS011;44177;43.356;27.672;2022-12-07T15:41:35;126.40;;;38.90;;
58372;SDS011;44177;43.356;27.672;2022-12-07T15:44:01;129.18;;;38.10;;
58372;SDS011;44177;43.356;27.672;2022-12-07T15:46:45;122.75;;;36.28;;
58372;SDS011;44177;43.356;27.672;2022-12-07T15:49:14;112.25;;;37.40;;
58372;SDS011;44177;43.356;27.672;2022-12-07T15:51:42;119.63;;;35.10;;
58372;SDS011;44177;43.356;27.672;2022-12-07T15:54:27;129.55;;;36.70;;
58372;SDS011;44177;43.356;27.672;2022-12-07T15:56:54;116.20;;;37.75;;
58372;SDS011;44177;43.356;27.672;2022-12-07T15:59:21;113.85;;;35.58;;
58372;SDS011;44177;43.356;27.672;2022-12-07T16:01:47;127.40;;;36.25;;
58372;SDS011;44177;43.356;27.672;2022-12-07T16:04:12;115.88;;;35.75;;
58372;SDS011;44177;43.356;27.672;2022-12-07T16:06:38;116.55;;;34.63;;
58372;SDS011;44177;43.356;27.672;2022-12-07T16:09:04;113.07;;;35.08;;
58372;SDS011;44177;43.356;27.672;2022-12-07T16:11:30;116.80;;;35.67;;
58372;SDS011;44177;43.356;27.672;2022-12-07T16:13:56;103.15;;;34.25;;
58372;SDS011;44177;43.356;27.672;2022-12-07T16:16:21;122.40;;;34.97;;
58372;SDS011;44177;43.356;27.672;2022-12-07T16:18:47;109.43;;;34.42;;
58372;SDS011;44177;43.356;27.672;2022-12-07T16:21:14;110.40;;;34.03;;
58372;SDS011;44177;43.356;27.672;2022-12-07T16:23:40;102.20;;;32.08;;
58372;SDS011;44177;43.356;27.672;2022-12-07T16:26:06;107.55;;;32.45;;
58372;SDS011;44177;43.356;27.672;2022-12-07T16:28:33;100.22;;;32.17;;
58372;SDS011;44177;43.356;27.672;2022-12-07T16:31:10;105.30;;;31.25;;
58372;SDS011;44177;43.356;27.672;2022-12-07T16:33:38;98.50;;;30.48;;
58372;SDS011;44177;43.356;27.672;2022-12-07T16:36:05;102.20;;;32.15;;
58372;SDS011;44177;43.356;27.672;2022-12-07T16:38:32;101.95;;;32.20;;
58372;SDS011;44177;43.356;27.672;2022-12-07T16:40:57;93.53;;;30.58;;
58372;SDS011;44177;43.356;27.672;2022-12-07T16:43:23;91.47;;;31.92;;
58372;SDS011;44177;43.356;27.672;2022-12-07T16:45:49;98.75;;;31.33;;
58372;SDS011;44177;43.356;27.672;2022-12-07T16:48:14;100.22;;;30.58;;
58372;SDS011;44177;43.356;27.672;2022-12-07T16:50:40;84.78;;;29.65;;
58372;SDS011;44177;43.356;27.672;2022-12-07T16:53:10;88.40;;;29.83;;